Time;durP1;ratioP1;P1;durP2;ratioP2;P2;SDS_P1;SDS_P2;PMS_P1;PMS_P2;Temp;Humidity;BMP_temperature;BMP_pressure;BME280_temperature;BME280_humidity;BME280_pressure;Samples;Min_cycle;Max_cycle;Signal;HPM_P1;HPM_P2
2022/01/17 00:01:40;;;;;;;7.50;1.30;;;6.10;99.90;;;;;;4955776;29;20203;-76
2022/01/17 00:04:06;;;;;;;13.05;1.75;;;6.10;99.90;;;;;;4954609;28;20058;-76
2022/01/17 00:06:32;;;;;;;10.95;1.50;;;6.10;99.90;;;;;;4954836;29;20039;-76
2022/01/17 00:08:57;;;;;;;10.75;1.52;;;6.10;99.90;;;;;;4939623;29;20410;-76
2022/01/17 00:11:23;;;;;;;9.20;1.85;;;6.00;99.90;;;;;;4939788;29;20138;-76
2022/01/17 00:13:49;;;;;;;12.93;1.85;;;6.00;99.90;;;;;;4955465;29;20118;-75
2022/01/17 00:16:20;;;;;;;11.68;1.52;;;6.00;99.90;;;;;;4955211;29;20046;-76
2022/01/17 00:21:14;;;;;;;13.27;1.92;;;5.90;99.90;;;;;;4955390;29;20085;-76
2022/01/17 00:23:40;;;;;;;8.55;1.65;;;5.90;99.90;;;;;;4955112;29;20074;-76
2022/01/17 00:26:06;;;;;;;8.75;1.17;;;5.90;99.90;;;;;;4955024;29;20035;-77
2022/01/17 00:28:32;;;;;;;9.63;1.38;;;5.80;99.90;;;;;;4939064;29;20062;-75
2022/01/17 00:31:00;;;;;;;13.25;1.65;;;5.90;99.90;;;;;;4939052;29;20123;-76
2022/01/17 00:33:26;;;;;;;6.20;1.50;;;5.90;99.90;;;;;;4955178;29;20058;-76
2022/01/17 00:35:52;;;;;;;15.00;2.05;;;5.80;99.90;;;;;;4938832;29;20043;-77
2022/01/17 00:38:17;;;;;;;14.90;1.95;;;5.80;99.90;;;;;;4955012;29;20079;-75
2022/01/17 00:40:43;;;;;;;11.38;1.52;;;5.70;99.90;;;;;;4955160;29;20050;-75
2022/01/17 00:43:09;;;;;;;13.13;1.65;;;5.60;99.90;;;;;;4954755;29;20383;-76
2022/01/17 00:45:38;;;;;;;20.67;1.83;;;5.70;99.90;;;;;;4954839;29;20035;-76
2022/01/17 00:48:03;;;;;;;7.20;1.42;;;5.60;99.90;;;;;;4938919;29;20086;-76
2022/01/17 00:50:31;;;;;;;11.75;2.35;;;5.60;99.90;;;;;;4954860;29;20083;-76
2022/01/17 00:53:02;;;;;;;11.13;1.45;;;5.50;99.90;;;;;;4956332;29;20047;-76
2022/01/17 00:55:32;;;;;;;10.02;1.40;;;5.50;99.90;;;;;;4954490;29;20433;-76
2022/01/17 00:57:57;;;;;;;16.10;2.40;;;5.40;99.90;;;;;;4938619;29;20040;-76
2022/01/17 01:00:23;;;;;;;9.30;2.17;;;5.40;99.90;;;;;;4938815;29;20051;-76
2022/01/17 01:02:49;;;;;;;10.13;2.15;;;5.40;99.90;;;;;;4954711;29;20054;-76
2022/01/17 01:05:16;;;;;;;10.07;1.27;;;5.40;99.90;;;;;;4938104;29;20035;-76
2022/01/17 01:07:43;;;;;;;10.23;2.30;;;5.40;99.90;;;;;;4954431;29;20058;-76
2022/01/17 01:10:12;;;;;;;9.63;1.42;;;5.40;99.90;;;;;;4938572;29;20050;-76
2022/01/17 01:12:39;;;;;;;10.00;1.55;;;5.50;99.90;;;;;;4954023;29;20054;-76
2022/01/17 01:15:11;;;;;;;5.90;1.42;;;5.40;99.90;;;;;;4938068;29;20079;-77
2022/01/17 01:17:48;;;;;;;11.95;1.60;;;5.50;99.90;;;;;;4954060;29;20043;-77
2022/01/17 01:28:29;;;;;;;15.65;1.83;;;5.40;99.90;;;;;;4956428;29;20047;-77
2022/01/17 01:30:57;;;;;;;9.40;1.30;;;5.40;99.90;;;;;;4956807;29;20039;-77
2022/01/17 01:33:33;;;;;;;11.85;1.23;;;5.30;99.90;;;;;;4955982;29;20047;-76
2022/01/17 01:36:07;;;;;;;5.93;1.08;;;5.30;99.90;;;;;;4955246;29;20054;-76
2022/01/17 01:38:33;;;;;;;13.27;1.83;;;5.30;99.90;;;;;;4938936;29;20046;-76
2022/01/17 01:40:59;;;;;;;8.82;1.55;;;5.20;99.90;;;;;;4954674;29;20674;-76
2022/01/17 01:43:24;;;;;;;12.05;1.45;;;5.10;99.90;;;;;;4955673;29;20461;-76
2022/01/17 01:45:58;;;;;;;8.93;1.75;;;5.10;99.90;;;;;;4953944;29;20464;-77
2022/01/17 01:48:24;;;;;;;4.80;1.00;;;5.10;99.90;;;;;;4954608;29;20047;-76
2022/01/17 01:50:50;;;;;;;7.65;1.13;;;5.00;99.90;;;;;;4954423;29;20055;-77
2022/01/17 01:53:16;;;;;;;10.82;1.35;;;4.90;99.90;;;;;;4954266;29;20135;-76
2022/01/17 01:55:41;;;;;;;12.30;2.05;;;5.00;99.90;;;;;;4937877;29;20050;-76
2022/01/17 01:58:09;;;;;;;12.68;1.50;;;4.90;99.90;;;;;;4938016;29;20050;-77
2022/01/17 02:00:34;;;;;;;8.93;2.50;;;4.90;99.90;;;;;;4953883;29;20565;-77
2022/01/17 02:03:00;;;;;;;11.70;1.38;;;4.80;99.90;;;;;;4953725;29;20043;-77
2022/01/17 02:05:26;;;;;;;12.55;2.17;;;4.80;99.90;;;;;;4955072;29;20070;-77
2022/01/17 02:07:51;;;;;;;16.75;2.45;;;4.80;99.90;;;;;;4938046;29;20039;-76
2022/01/17 02:10:17;;;;;;;14.63;1.50;;;4.80;99.90;;;;;;4954020;29;20035;-76
2022/01/17 02:12:42;;;;;;;14.68;1.73;;;4.80;99.90;;;;;;4954183;29;20434;-76
2022/01/17 02:15:14;;;;;;;8.77;1.60;;;4.80;99.90;;;;;;4953187;29;20035;-76
2022/01/17 02:17:45;;;;;;;10.20;1.60;;;4.80;99.90;;;;;;4953735;29;20043;-77
2022/01/17 02:20:17;;;;;;;10.15;2.03;;;4.80;99.90;;;;;;4937583;29;20519;-76
2022/01/17 02:22:43;;;;;;;10.43;2.42;;;4.90;99.90;;;;;;4953898;29;20554;-76
2022/01/17 02:25:09;;;;;;;11.70;2.00;;;4.90;99.90;;;;;;4937324;29;20114;-76
2022/01/17 02:27:35;;;;;;;16.13;1.95;;;4.90;99.90;;;;;;4953491;28;20039;-76
2022/01/17 02:30:00;;;;;;;6.28;1.27;;;4.80;99.90;;;;;;4954329;29;20094;-76
2022/01/17 02:32:26;;;;;;;10.07;2.00;;;4.80;99.90;;;;;;4954400;29;20059;-75
2022/01/17 02:35:09;;;;;;;13.60;1.98;;;4.80;99.90;;;;;;4952922;29;20039;-76
2022/01/17 02:37:35;;;;;;;8.75;1.88;;;4.80;99.90;;;;;;4953012;29;20394;-76
2022/01/17 02:40:00;;;;;;;14.60;1.92;;;4.70;99.90;;;;;;4954057;28;20039;-76
2022/01/17 02:42:27;;;;;;;12.27;1.90;;;4.70;99.90;;;;;;4936638;29;20584;-75
2022/01/17 02:44:55;;;;;;;8.00;1.27;;;4.60;99.90;;;;;;4937233;29;20071;-76
2022/01/17 02:47:23;;;;;;;18.63;2.78;;;4.60;99.90;;;;;;4936637;29;20041;-76
2022/01/17 02:49:48;;;;;;;9.50;1.48;;;4.60;99.90;;;;;;4953253;29;20113;-76
2022/01/17 02:52:14;;;;;;;10.55;1.42;;;4.50;99.90;;;;;;4954234;29;20490;-76
2022/01/17 02:54:39;;;;;;;14.20;1.92;;;4.50;99.90;;;;;;4952785;29;20409;-76
2022/01/17 02:57:07;;;;;;;10.75;1.75;;;4.40;99.90;;;;;;4953975;29;20486;-76
2022/01/17 02:59:32;;;;;;;12.57;1.52;;;4.40;99.90;;;;;;4952449;29;20043;-76
2022/01/17 03:01:59;;;;;;;15.77;1.75;;;4.40;99.90;;;;;;4936765;29;20039;-76
2022/01/17 03:04:25;;;;;;;14.80;3.63;;;4.30;99.90;;;;;;4936754;29;20046;-75
2022/01/17 03:06:52;;;;;;;15.18;1.52;;;4.30;99.90;;;;;;4936358;29;20031;-75
2022/01/17 03:09:19;;;;;;;11.13;2.13;;;4.30;99.90;;;;;;4952425;29;20048;-75
2022/01/17 03:11:45;;;;;;;12.07;1.50;;;4.40;99.90;;;;;;4953762;29;20055;-75
2022/01/17 03:14:10;;;;;;;9.75;1.80;;;4.30;99.90;;;;;;4937078;29;20051;-75
2022/01/17 03:16:41;;;;;;;18.40;2.03;;;4.30;99.90;;;;;;4936262;29;20513;-76
2022/01/17 03:19:06;;;;;;;11.20;1.75;;;4.30;99.90;;;;;;4953708;29;20047;-76
2022/01/17 03:21:32;;;;;;;12.85;1.60;;;4.20;99.90;;;;;;4952680;29;20558;-76
2022/01/17 03:23:58;;;;;;;15.57;2.58;;;4.30;99.90;;;;;;4953562;29;20506;-76
2022/01/17 03:26:25;;;;;;;18.13;2.17;;;4.30;99.90;;;;;;4953673;29;20118;-75
2022/01/17 03:28:50;;;;;;;13.77;2.58;;;4.30;99.90;;;;;;4953725;29;20517;-77
2022/01/17 03:31:16;;;;;;;11.65;1.90;;;4.20;99.90;;;;;;4953755;29;20040;-76
2022/01/17 03:33:41;;;;;;;16.38;2.08;;;4.30;99.90;;;;;;4953465;29;20502;-75
2022/01/17 03:36:07;;;;;;;13.55;1.90;;;4.20;99.90;;;;;;4952331;29;20035;-76
2022/01/17 03:38:34;;;;;;;11.27;1.92;;;4.20;99.90;;;;;;4936530;28;20235;-75
2022/01/17 03:41:02;;;;;;;10.88;1.77;;;4.10;99.90;;;;;;4940250;29;20047;-76
2022/01/17 03:43:28;;;;;;;8.55;1.80;;;4.10;99.90;;;;;;4956182;29;20050;-76
2022/01/17 03:45:54;;;;;;;12.52;1.77;;;4.10;99.90;;;;;;4955944;29;20051;-76
2022/01/17 03:48:20;;;;;;;12.23;2.67;;;4.10;99.90;;;;;;4955866;29;20047;-76
2022/01/17 03:50:46;;;;;;;10.90;1.98;;;4.20;99.90;;;;;;4956050;29;20126;-76
2022/01/17 03:53:12;;;;;;;26.10;2.55;;;4.20;99.90;;;;;;4957003;29;20046;-75
2022/01/17 03:55:38;;;;;;;14.90;1.80;;;4.30;99.90;;;;;;4955560;29;20114;-75
2022/01/17 03:58:05;;;;;;;21.15;3.28;;;4.30;99.90;;;;;;4956848;29;20050;-76
2022/01/17 04:00:37;;;;;;;10.25;1.15;;;4.40;99.90;;;;;;4956818;29;20054;-75
2022/01/17 04:03:03;;;;;;;14.30;1.83;;;4.50;99.90;;;;;;4956937;29;20043;-76
2022/01/17 04:05:29;;;;;;;11.50;1.88;;;4.50;99.90;;;;;;4956402;29;20035;-76
2022/01/17 04:07:54;;;;;;;18.40;3.08;;;4.60;99.90;;;;;;4955892;29;20118;-76
2022/01/17 04:10:20;;;;;;;10.43;1.05;;;4.60;99.90;;;;;;4955578;29;20039;-76
2022/01/17 04:12:46;;;;;;;11.20;1.70;;;4.60;99.90;;;;;;4956710;29;20043;-76
2022/01/17 04:15:12;;;;;;;10.05;1.20;;;4.70;99.90;;;;;;4956606;28;20047;-76
2022/01/17 04:17:40;;;;;;;14.75;2.50;;;4.70;99.90;;;;;;4956699;28;20046;-76
2022/01/17 04:20:09;;;;;;;8.02;1.90;;;4.80;99.90;;;;;;4955060;29;20050;-76
2022/01/17 04:22:43;;;;;;;9.93;1.35;;;4.70;99.90;;;;;;4956494;28;20094;-76
2022/01/17 04:25:10;;;;;;;7.40;1.40;;;4.60;99.90;;;;;;4956470;29;20050;-75
2022/01/17 04:27:36;;;;;;;7.18;1.50;;;4.60;99.90;;;;;;4956325;29;20498;-77
2022/01/17 04:30:05;;;;;;;12.88;1.83;;;4.60;99.90;;;;;;4956387;29;20090;-77
2022/01/17 04:32:31;;;;;;;12.57;1.58;;;4.60;99.90;;;;;;4955119;29;20130;-76
2022/01/17 04:34:57;;;;;;;8.23;1.48;;;4.50;99.90;;;;;;4939059;29;20578;-76
2022/01/17 04:37:22;;;;;;;16.38;2.20;;;4.50;99.90;;;;;;4956135;29;20050;-76
2022/01/17 04:39:48;;;;;;;10.10;1.63;;;4.50;99.90;;;;;;4955279;29;20047;-76
2022/01/17 04:42:16;;;;;;;12.55;1.27;;;4.50;99.90;;;;;;4955406;29;20130;-76
2022/01/17 04:47:31;;;;;;;12.70;1.95;;;4.40;99.90;;;;;;4954620;29;20055;-76
2022/01/17 04:49:57;;;;;;;13.05;2.38;;;4.50;99.90;;;;;;4954493;28;20043;-76
2022/01/17 04:52:22;;;;;;;10.88;2.58;;;4.40;99.90;;;;;;4938009;29;20048;-76
2022/01/17 04:54:59;;;;;;;16.35;2.45;;;4.40;99.90;;;;;;4954428;29;20050;-76
2022/01/17 04:57:24;;;;;;;14.38;2.53;;;4.40;99.90;;;;;;4938837;29;20492;-76
2022/01/17 04:59:50;;;;;;;10.30;1.40;;;4.40;99.90;;;;;;4938654;29;20085;-76
2022/01/17 05:02:16;;;;;;;10.45;2.45;;;4.40;99.90;;;;;;4938934;29;20054;-76
2022/01/17 05:04:45;;;;;;;8.82;1.42;;;4.50;99.90;;;;;;4954623;29;20130;-76
2022/01/17 05:07:14;;;;;;;16.15;1.70;;;4.50;99.90;;;;;;4954368;29;20039;-76
2022/01/17 05:09:41;;;;;;;14.07;2.80;;;4.60;99.90;;;;;;4954770;29;20039;-76
2022/01/17 05:12:08;;;;;;;11.20;1.65;;;4.60;99.90;;;;;;4954368;29;20035;-76
2022/01/17 05:14:33;;;;;;;6.53;1.10;;;4.70;99.90;;;;;;4954643;29;20077;-76
2022/01/17 05:17:06;;;;;;;12.95;1.52;;;4.70;99.90;;;;;;4953979;29;20498;-77
2022/01/17 05:19:51;;;;;;;8.85;1.63;;;4.80;99.90;;;;;;4954243;28;20102;-76
2022/01/17 05:22:19;;;;;;;11.48;1.80;;;4.90;99.90;;;;;;4956527;29;20047;-80
2022/01/17 05:24:45;;;;;;;7.22;1.30;;;4.90;99.90;;;;;;4940409;29;20051;-79
2022/01/17 05:27:11;;;;;;;10.40;2.00;;;5.00;99.90;;;;;;4956181;29;20039;-79
2022/01/17 05:29:37;;;;;;;18.10;2.25;;;5.00;99.90;;;;;;4955748;29;20114;-79
2022/01/17 05:32:03;;;;;;;6.90;1.63;;;5.10;99.90;;;;;;4955635;29;20049;-79
2022/01/17 05:34:28;;;;;;;15.52;2.28;;;5.10;99.90;;;;;;4954971;29;20047;-79
2022/01/17 05:36:54;;;;;;;8.88;2.75;;;5.10;99.90;;;;;;4955009;29;20046;-80
2022/01/17 05:39:20;;;;;;;15.23;2.92;;;5.20;99.90;;;;;;4955748;29;20078;-79
2022/01/17 05:41:45;;;;;;;9.23;1.70;;;5.20;99.90;;;;;;4955510;29;20070;-79
2022/01/17 05:44:11;;;;;;;7.30;1.65;;;5.30;99.90;;;;;;4955171;29;20043;-79
2022/01/17 05:46:36;;;;;;;16.38;2.17;;;5.30;99.90;;;;;;4955573;29;20043;-80
2022/01/17 05:49:03;;;;;;;10.25;2.22;;;5.40;99.90;;;;;;4955329;29;20035;-82
2022/01/17 05:51:28;;;;;;;15.02;3.30;;;5.30;99.90;;;;;;4939378;29;20035;-82
2022/01/17 05:53:54;;;;;;;11.25;2.47;;;5.40;99.90;;;;;;4955635;29;20058;-81
2022/01/17 05:56:19;;;;;;;13.10;3.50;;;5.40;99.90;;;;;;4957796;29;20051;-81
2022/01/17 05:58:45;;;;;;;13.25;2.80;;;5.40;99.90;;;;;;4957200;29;20043;-82
2022/01/17 06:01:12;;;;;;;17.42;3.15;;;5.50;99.90;;;;;;4955166;29;20043;-82
2022/01/17 06:03:37;;;;;;;10.48;2.25;;;5.50;99.90;;;;;;4954590;28;20134;-82
2022/01/17 06:06:03;;;;;;;10.90;2.75;;;5.60;99.90;;;;;;4954631;29;20134;-82
2022/01/17 06:08:29;;;;;;;8.90;3.10;;;5.60;99.90;;;;;;4954926;29;20043;-81
2022/01/17 06:10:55;;;;;;;11.75;2.58;;;5.60;99.90;;;;;;4939215;29;20078;-82
2022/01/17 06:13:21;;;;;;;7.07;3.20;;;5.60;99.90;;;;;;4955851;29;20529;-82
2022/01/17 06:15:46;;;;;;;10.90;2.80;;;5.70;99.90;;;;;;4954628;29;20043;-82
2022/01/17 06:18:12;;;;;;;11.30;2.95;;;5.70;99.90;;;;;;4955008;29;20565;-81
2022/01/17 06:20:37;;;;;;;19.13;5.88;;;5.70;99.90;;;;;;4954590;29;20054;-82
2022/01/17 06:23:03;;;;;;;8.70;3.30;;;5.70;99.90;;;;;;4953650;29;20051;-82
2022/01/17 06:25:28;;;;;;;13.95;3.53;;;5.70;99.90;;;;;;4953646;29;20042;-82
2022/01/17 06:27:54;;;;;;;14.05;3.60;;;5.80;99.90;;;;;;4954194;29;20040;-82
2022/01/17 06:30:19;;;;;;;12.85;3.15;;;5.80;99.90;;;;;;4954331;29;20125;-82
2022/01/17 06:32:45;;;;;;;11.38;3.67;;;5.80;99.90;;;;;;4953165;29;20051;-83
2022/01/17 06:35:11;;;;;;;12.55;4.00;;;5.90;99.90;;;;;;4952835;29;20520;-83
2022/01/17 06:37:39;;;;;;;10.95;3.15;;;5.80;99.90;;;;;;4953672;29;20039;-83
2022/01/17 06:40:07;;;;;;;27.63;7.10;;;5.80;99.90;;;;;;4953629;29;20082;-78
2022/01/17 06:42:33;;;;;;;18.88;5.88;;;5.80;99.90;;;;;;4952671;29;20537;-78
2022/01/17 06:45:03;;;;;;;19.05;5.80;;;5.80;99.90;;;;;;4952441;29;20561;-78
2022/01/17 06:47:32;;;;;;;18.60;5.10;;;5.80;99.90;;;;;;4952667;29;20127;-78
2022/01/17 06:49:58;;;;;;;14.20;4.43;;;5.80;99.90;;;;;;4952638;29;20079;-77
2022/01/17 06:52:24;;;;;;;20.38;5.20;;;5.90;99.90;;;;;;4953301;29;20084;-78
2022/01/17 06:54:52;;;;;;;13.98;4.75;;;5.90;99.90;;;;;;4936599;29;20490;-78
2022/01/17 06:57:18;;;;;;;21.20;5.45;;;5.90;99.90;;;;;;4952679;29;20126;-77
2022/01/17 06:59:44;;;;;;;14.13;5.40;;;5.80;99.90;;;;;;4952398;29;20058;-77
2022/01/17 07:02:10;;;;;;;20.90;5.13;;;5.90;99.90;;;;;;4952863;29;20035;-77
2022/01/17 07:04:35;;;;;;;17.73;5.97;;;5.90;99.90;;;;;;4951211;29;20122;-76
2022/01/17 07:07:02;;;;;;;20.77;4.88;;;5.90;99.90;;;;;;4953396;29;20035;-77
2022/01/17 07:09:28;;;;;;;15.13;4.90;;;5.90;99.90;;;;;;4952537;29;20490;-77
2022/01/17 07:11:58;;;;;;;18.40;5.05;;;6.00;99.90;;;;;;4952471;29;20043;-76
2022/01/17 07:14:26;;;;;;;16.98;5.68;;;6.00;99.90;;;;;;4938268;29;20070;-77
2022/01/17 07:16:52;;;;;;;21.08;5.53;;;6.00;99.90;;;;;;4940031;29;20039;-77
2022/01/17 07:19:17;;;;;;;21.73;6.00;;;6.00;99.90;;;;;;4940067;29;20058;-77
2022/01/17 07:21:43;;;;;;;17.48;6.45;;;6.00;99.90;;;;;;4940440;29;20441;-77
2022/01/17 07:24:08;;;;;;;18.25;6.68;;;6.00;99.90;;;;;;4940232;29;20044;-77
2022/01/17 07:26:34;;;;;;;14.55;5.38;;;6.00;99.90;;;;;;4955851;29;20417;-77
2022/01/17 07:29:00;;;;;;;18.63;5.15;;;6.00;99.90;;;;;;4939933;29;20050;-77
2022/01/17 07:31:26;;;;;;;18.67;4.55;;;5.90;99.90;;;;;;4940069;29;20043;-77
2022/01/17 07:33:52;;;;;;;24.75;5.47;;;5.90;99.90;;;;;;4955853;29;20043;-77
2022/01/17 07:36:19;;;;;;;16.52;4.65;;;5.90;99.90;;;;;;4955684;29;20102;-77
2022/01/17 07:38:46;;;;;;;18.95;6.15;;;5.90;99.90;;;;;;4940240;29;20406;-77
2022/01/17 07:41:12;;;;;;;22.92;7.00;;;5.90;99.90;;;;;;4939813;29;20039;-77
2022/01/17 07:43:38;;;;;;;21.27;4.00;;;6.00;99.90;;;;;;4955810;29;20043;-77
2022/01/17 07:51:15;;;;;;;15.18;5.70;;;5.90;99.90;;;;;;4955672;29;20509;-77
2022/01/17 07:53:41;;;;;;;23.38;5.53;;;6.00;99.90;;;;;;4939818;29;20047;-77
2022/01/17 07:56:07;;;;;;;25.95;5.28;;;6.00;99.90;;;;;;4955209;29;20051;-77
2022/01/17 07:58:32;;;;;;;19.45;4.60;;;5.90;99.90;;;;;;4939385;29;20039;-77
2022/01/17 08:00:58;;;;;;;18.95;4.88;;;5.90;99.90;;;;;;4939696;29;20326;-76
2022/01/17 08:03:23;;;;;;;15.57;5.32;;;6.00;99.90;;;;;;4955292;29;20126;-77
2022/01/17 08:05:49;;;;;;;17.80;4.63;;;6.00;99.90;;;;;;4940141;29;20179;-78
2022/01/17 08:08:14;;;;;;;23.42;5.32;;;6.00;99.90;;;;;;4955600;29;20514;-79
2022/01/17 08:10:40;;;;;;;15.10;3.92;;;6.00;99.90;;;;;;4955542;29;20467;-80
2022/01/17 08:13:05;;;;;;;23.55;4.82;;;5.90;99.90;;;;;;4955902;29;20051;-79
2022/01/17 08:15:31;;;;;;;21.80;4.78;;;6.00;99.90;;;;;;4955456;29;20087;-80
2022/01/17 08:17:57;;;;;;;19.85;5.18;;;6.20;99.90;;;;;;4956975;28;20053;-80
2022/01/17 08:20:23;;;;;;;17.17;3.42;;;6.00;99.90;;;;;;4939881;29;20094;-79
2022/01/17 08:22:49;;;;;;;31.20;4.22;;;6.10;99.90;;;;;;4955256;29;20043;-79
2022/01/17 08:25:16;;;;;;;19.92;4.25;;;6.10;99.90;;;;;;4954391;28;20039;-80
2022/01/17 08:27:42;;;;;;;21.88;4.00;;;6.20;99.90;;;;;;4955320;29;20557;-79
2022/01/17 08:30:08;;;;;;;15.32;3.53;;;6.10;99.90;;;;;;4939317;29;20043;-79
2022/01/17 08:32:34;;;;;;;20.30;3.47;;;6.10;99.90;;;;;;4955612;29;20035;-79
2022/01/17 08:35:00;;;;;;;19.38;2.78;;;6.10;99.90;;;;;;4954949;29;20494;-79
2022/01/17 08:37:27;;;;;;;13.00;2.55;;;6.20;99.90;;;;;;4939387;29;20055;-80
2022/01/17 08:39:53;;;;;;;16.85;3.13;;;6.20;99.90;;;;;;4939314;29;20080;-79
2022/01/17 08:42:19;;;;;;;19.38;2.80;;;6.20;99.90;;;;;;4955439;29;20102;-79
2022/01/17 08:44:50;;;;;;;21.83;3.60;;;6.20;99.90;;;;;;4938989;29;20046;-80
2022/01/17 08:47:17;;;;;;;23.35;4.22;;;6.20;99.90;;;;;;4939186;29;20398;-79
2022/01/17 08:49:43;;;;;;;22.98;3.47;;;6.20;99.90;;;;;;4954777;29;20047;-78
2022/01/17 08:52:09;;;;;;;24.35;3.88;;;6.20;99.90;;;;;;4939140;29;20043;-80
2022/01/17 08:54:36;;;;;;;16.33;3.15;;;6.30;99.90;;;;;;4939656;29;20054;-79
2022/01/17 08:57:02;;;;;;;16.92;3.65;;;6.40;99.90;;;;;;4939811;29;20047;-80
2022/01/17 08:59:30;;;;;;;13.60;2.28;;;6.40;99.90;;;;;;4941201;29;20043;-78
2022/01/17 09:01:55;;;;;;;20.23;4.68;;;6.40;99.90;;;;;;4938738;29;20098;-78
2022/01/17 09:04:21;;;;;;;23.20;5.30;;;6.40;99.90;;;;;;4954973;29;20055;-79
2022/01/17 09:06:47;;;;;;;14.02;2.70;;;6.50;99.90;;;;;;4939275;29;20041;-79
2022/01/17 09:09:12;;;;;;;23.92;3.22;;;6.60;99.90;;;;;;4954844;29;20058;-79
2022/01/17 09:11:38;;;;;;;22.08;3.55;;;6.60;99.90;;;;;;4955018;29;20504;-79
2022/01/17 09:14:03;;;;;;;14.95;2.67;;;6.70;99.90;;;;;;4954530;29;20047;-79
2022/01/17 09:16:29;;;;;;;24.38;4.93;;;6.70;99.90;;;;;;4954703;29;20493;-79
2022/01/17 09:18:55;;;;;;;28.33;3.92;;;6.80;99.90;;;;;;4954885;29;20094;-79
2022/01/17 09:21:20;;;;;;;26.40;4.18;;;6.80;99.90;;;;;;4938836;29;20074;-79
2022/01/17 09:23:47;;;;;;;24.20;6.47;;;6.80;99.90;;;;;;4955737;29;20506;-79
2022/01/17 09:26:13;;;;;;;14.85;3.55;;;6.90;99.90;;;;;;4938155;29;20036;-79
2022/01/17 09:28:39;;;;;;;19.58;2.63;;;6.90;99.90;;;;;;4954338;29;20039;-79
2022/01/17 09:31:05;;;;;;;16.20;2.72;;;6.90;99.90;;;;;;4938330;29;20039;-79
2022/01/17 09:33:30;;;;;;;13.77;2.92;;;7.00;99.90;;;;;;4955717;29;20564;-80
2022/01/17 09:35:56;;;;;;;27.92;3.05;;;7.00;99.90;;;;;;4953968;29;20074;-80
2022/01/17 09:38:21;;;;;;;22.85;4.65;;;7.00;99.90;;;;;;4953898;28;20414;-80
2022/01/17 09:40:47;;;;;;;18.88;2.95;;;7.10;99.90;;;;;;4956978;29;20490;-80
2022/01/17 09:43:13;;;;;;;15.70;3.60;;;7.20;99.90;;;;;;4956916;29;20514;-80
2022/01/17 09:45:38;;;;;;;19.10;3.08;;;7.20;99.90;;;;;;4957520;29;20039;-80
2022/01/17 09:48:06;;;;;;;21.15;3.22;;;7.30;99.90;;;;;;4956700;29;20046;-80
2022/01/17 09:50:46;;;;;;;18.30;2.70;;;7.30;99.90;;;;;;4956641;29;20498;-80
2022/01/17 09:53:17;;;;;;;16.70;2.80;;;7.40;99.90;;;;;;4941117;29;20482;-80
2022/01/17 09:55:43;;;;;;;18.43;2.87;;;7.50;99.90;;;;;;4940079;29;20043;-80
2022/01/17 09:58:10;;;;;;;19.00;3.40;;;7.60;99.90;;;;;;4940474;29;20035;-80
2022/01/17 10:00:38;;;;;;;20.58;2.97;;;7.70;99.90;;;;;;4955798;29;20039;-81
2022/01/17 10:03:17;;;;;;;18.45;3.13;;;7.70;99.90;;;;;;4956097;29;20078;-80
2022/01/17 10:05:43;;;;;;;21.20;3.50;;;7.80;99.90;;;;;;4940624;29;20039;-80
2022/01/17 10:08:11;;;;;;;17.58;3.63;;;7.90;99.90;;;;;;4956726;29;20043;-80
2022/01/17 10:10:46;;;;;;;21.05;3.25;;;7.90;99.90;;;;;;4958758;29;20039;-81
2022/01/17 10:13:33;;;;;;;16.05;2.92;;;8.00;99.90;;;;;;4958201;29;20051;-81
2022/01/17 10:16:07;;;;;;;17.35;3.20;;;8.10;99.90;;;;;;4957279;29;20043;-80
2022/01/17 10:18:39;;;;;;;17.35;2.80;;;8.10;99.90;;;;;;4956148;29;20410;-81
2022/01/17 10:21:20;;;;;;;18.73;3.53;;;8.20;99.90;;;;;;4956501;29;20168;-81
2022/01/17 10:24:13;;;;;;;23.05;3.17;;;8.20;99.90;;;;;;4955754;29;20097;-81
2022/01/17 10:29:34;;;;;;;25.20;3.17;;;8.30;99.90;;;;;;4957499;29;20047;-81
2022/01/17 10:34:56;;;;;;;27.90;3.53;;;8.50;99.90;;;;;;4955443;29;20126;-80
2022/01/17 10:37:24;;;;;;;;;;;8.50;99.90;;;;;;4939729;29;20082;-79
2022/01/17 10:40:05;;;;;;;19.65;5.47;;;8.50;99.90;;;;;;4969932;28;19998;-79
2022/01/17 10:42:31;;;;;;;17.98;3.67;;;8.60;99.90;;;;;;4954695;29;20090;-80
2022/01/17 10:45:04;;;;;;;25.73;3.47;;;8.70;99.90;;;;;;4954599;29;20092;-80
2022/01/17 10:47:30;;;;;;;23.33;3.25;;;8.70;99.90;;;;;;4953503;29;20051;-79
2022/01/17 10:49:59;;;;;;;24.00;3.92;;;8.80;99.90;;;;;;4936954;29;20039;-79
2022/01/17 10:52:34;;;;;;;27.40;5.32;;;8.80;99.90;;;;;;4953647;29;20043;-80
2022/01/17 10:55:10;;;;;;;20.58;3.72;;;8.80;99.90;;;;;;4937331;29;20245;-80
2022/01/17 10:57:40;;;;;;;18.90;3.15;;;8.80;99.90;;;;;;4953436;29;20055;-80
2022/01/17 11:00:24;;;;;;;20.55;2.78;;;8.80;99.90;;;;;;4937105;29;20055;-80
2022/01/17 11:02:52;;;;;;;31.58;7.38;;;8.90;99.90;;;;;;4953559;29;20054;-79
2022/01/17 11:05:21;;;;;;;21.20;3.88;;;8.90;99.90;;;;;;4953126;29;20054;-80
2022/01/17 11:07:50;;;;;;;23.75;4.65;;;9.00;99.90;;;;;;4953128;29;20046;-80
2022/01/17 11:10:21;;;;;;;22.75;4.25;;;9.00;99.90;;;;;;4954795;29;20051;-79
2022/01/17 11:12:49;;;;;;;27.70;4.45;;;9.10;99.90;;;;;;4954354;28;20035;-80
2022/01/17 11:15:15;;;;;;;32.25;5.07;;;9.10;99.90;;;;;;4953237;29;20417;-79
2022/01/17 11:17:48;;;;;;;21.80;3.88;;;9.10;99.90;;;;;;4953468;29;20039;-80
2022/01/17 11:20:15;;;;;;;27.67;5.57;;;9.10;99.90;;;;;;4953336;29;20047;-79
2022/01/17 11:22:44;;;;;;;21.83;3.72;;;9.20;99.90;;;;;;4953336;29;20121;-80
2022/01/17 11:25:13;;;;;;;17.38;3.47;;;9.10;99.90;;;;;;4952446;29;20101;-80
2022/01/17 11:27:39;;;;;;;24.63;5.00;;;9.10;99.90;;;;;;4953391;29;20035;-79
2022/01/17 11:30:06;;;;;;;24.00;5.00;;;9.10;99.90;;;;;;4954292;29;20040;-80
2022/01/17 11:32:32;;;;;;;23.23;3.88;;;9.00;99.90;;;;;;4953146;29;20102;-79
2022/01/17 11:35:01;;;;;;;23.00;4.70;;;9.00;99.90;;;;;;4954419;29;20438;-80
2022/01/17 11:37:31;;;;;;;27.17;4.38;;;9.00;99.90;;;;;;4953541;29;20054;-80
2022/01/17 11:39:57;;;;;;;25.00;4.57;;;9.00;99.90;;;;;;4953113;29;20043;-80
2022/01/17 11:42:36;;;;;;;27.48;4.72;;;8.90;99.90;;;;;;4937296;29;20039;-79
2022/01/17 11:45:22;;;;;;;37.22;4.75;;;9.00;99.90;;;;;;4936709;29;20101;-79
2022/01/17 11:47:59;;;;;;;20.55;4.55;;;9.00;99.90;;;;;;4953019;29;20066;-80
2022/01/17 11:50:28;;;;;;;18.65;3.35;;;9.00;99.90;;;;;;4936970;29;20039;-80
2022/01/17 11:52:55;;;;;;;30.80;4.05;;;9.10;99.90;;;;;;4952611;29;20506;-79
2022/01/17 11:55:42;;;;;;;22.55;4.35;;;9.20;99.90;;;;;;4952782;29;20394;-80
2022/01/17 11:58:49;;;;;;;29.75;4.18;;;9.40;99.90;;;;;;4952175;29;20384;-77
2022/01/17 12:01:20;;;;;;;24.75;5.03;;;9.50;99.90;;;;;;4933149;29;20047;-76
2022/01/17 12:03:50;;;;;;;30.20;5.35;;;9.60;99.90;;;;;;4939335;29;20047;-77
2022/01/17 12:06:33;;;;;;;18.38;4.30;;;9.60;99.90;;;;;;4955270;29;20162;-77
2022/01/17 12:09:20;;;;;;;24.25;4.68;;;9.60;99.90;;;;;;4955209;29;20058;-77
2022/01/17 12:12:10;;;;;;;28.38;5.05;;;9.60;99.90;;;;;;4955539;29;20167;-76
2022/01/17 12:14:40;;;;;;;20.50;4.32;;;9.70;99.90;;;;;;4939167;29;20134;-77
2022/01/17 12:17:23;;;;;;;20.13;3.63;;;9.70;99.90;;;;;;4939049;29;20505;-77
2022/01/17 12:20:04;;;;;;;29.27;4.88;;;9.80;99.90;;;;;;4955231;29;20051;-77
2022/01/17 12:22:38;;;;;;;27.95;5.53;;;9.90;99.90;;;;;;4954966;29;20391;-77
2022/01/17 12:25:26;;;;;;;33.08;4.55;;;9.90;99.90;;;;;;4938731;29;20047;-78
2022/01/17 12:28:04;;;;;;;28.98;4.68;;;9.90;99.90;;;;;;4939250;29;20066;-78
2022/01/17 12:30:41;;;;;;;27.15;4.22;;;9.90;99.90;;;;;;4955233;29;20041;-78
2022/01/17 12:33:28;;;;;;;36.80;4.45;;;9.90;99.90;;;;;;4956818;28;20043;-78
2022/01/17 12:35:57;;;;;;;28.85;4.82;;;9.90;99.90;;;;;;4954981;29;20078;-78
2022/01/17 12:38:40;;;;;;;31.95;5.10;;;9.90;99.90;;;;;;4955330;29;20039;-78
2022/01/17 12:41:06;;;;;;;23.15;3.90;;;9.80;99.90;;;;;;4956147;28;20461;-78
2022/01/17 12:43:34;;;;;;;25.88;3.88;;;9.80;99.90;;;;;;4956042;29;20053;-78
2022/01/17 12:46:07;;;;;;;21.95;4.22;;;9.80;99.90;;;;;;4955903;29;20039;-78
2022/01/17 12:48:35;;;;;;;26.02;3.83;;;9.70;99.90;;;;;;4955832;29;20502;-78
2022/01/17 12:51:05;;;;;;;25.48;4.07;;;9.60;99.90;;;;;;4956037;29;20124;-78
2022/01/17 12:53:31;;;;;;;34.38;4.38;;;9.60;99.90;;;;;;4954690;29;20053;-78
2022/01/17 12:55:59;;;;;;;24.25;4.55;;;9.60;99.90;;;;;;4938392;29;20043;-78
2022/01/17 12:58:33;;;;;;;33.38;5.00;;;9.70;99.90;;;;;;4938553;29;20498;-78
2022/01/17 13:01:03;;;;;;;19.17;3.78;;;9.80;99.90;;;;;;4956026;29;20105;-78
2022/01/17 13:03:33;;;;;;;30.35;5.13;;;9.90;99.90;;;;;;4938877;29;20066;-78
2022/01/17 13:06:00;;;;;;;31.92;4.90;;;10.00;99.90;;;;;;4954549;29;20058;-78
2022/01/17 13:08:26;;;;;;;29.25;4.85;;;10.00;99.90;;;;;;4954306;29;20519;-78
2022/01/17 13:10:52;;;;;;;21.38;2.67;;;10.00;99.90;;;;;;4955821;29;20039;-78
2022/01/17 13:13:18;;;;;;;21.50;3.58;;;9.90;99.90;;;;;;4954833;28;20047;-78
2022/01/17 13:16:02;;;;;;;22.95;4.30;;;9.80;99.90;;;;;;4955269;29;20051;-79
2022/01/17 13:18:53;;;;;;;28.85;4.20;;;9.80;99.90;;;;;;4956166;29;20049;-78